Time;durP1;ratioP1;P1;durP2;ratioP2;P2;SDS_P1;SDS_P2;PMS_P1;PMS_P2;Temp;Humidity;BMP_temperature;BMP_pressure;BME280_temperature;BME280_humidity;BME280_pressure;Samples;Min_cycle;Max_cycle;Signal;HPM_P1;HPM_P2
2022/08/26 00:02:14;;;;;;;7.47;4.95;;;;;;;21.69;56.43;98768.03;5235976;28;20074;-68
2022/08/26 00:05:08;;;;;;;11.05;6.53;;;;;;;21.76;56.98;98766.94;5237827;28;20052;-68
2022/08/26 00:07:59;;;;;;;11.35;5.90;;;;;;;21.51;58.34;98769.63;5241959;28;20110;-68
2022/08/26 00:10:49;;;;;;;8.93;5.60;;;;;;;21.57;57.10;98759.84;5237169;28;20052;-68
2022/08/26 00:13:41;;;;;;;9.80;5.88;;;;;;;21.69;57.02;98762.63;5238583;28;20089;-67
2022/08/26 00:16:37;;;;;;;9.55;6.32;;;;;;;21.35;57.09;98716.25;5239328;28;20091;-66
2022/08/26 00:19:30;;;;;;;8.63;6.00;;;;;;;21.63;57.31;98756.25;5237799;28;20045;-67
2022/08/26 00:22:21;;;;;;;9.50;5.40;;;;;;;21.57;57.46;98767.94;5240290;28;20564;-67
2022/08/26 00:25:12;;;;;;;9.85;6.88;;;;;;;21.54;57.41;98762.97;5235997;28;20059;-68
2022/08/26 00:28:06;;;;;;;7.65;6.35;;;;;;;21.52;57.16;98765.91;5236479;28;20053;-67
2022/08/26 00:30:59;;;;;;;7.72;6.00;;;;;;;21.35;57.23;98754.81;5236097;28;20045;-67
2022/08/26 00:33:50;;;;;;;9.88;5.97;;;;;;;21.47;57.27;98768.44;5240975;28;20056;-66
2022/08/26 00:36:40;;;;;;;11.65;6.13;;;;;;;21.72;57.22;98771.13;5240795;28;20071;-67
2022/08/26 00:39:31;;;;;;;9.32;6.10;;;;;;;21.55;58.29;98770.84;5241606;28;20047;-67
2022/08/26 00:42:22;;;;;;;10.40;7.00;;;;;;;21.62;58.20;98768.09;5249681;28;20501;-67
2022/08/26 00:45:13;;;;;;;8.70;6.35;;;;;;;21.68;57.95;98772.59;5235608;28;20264;-67
2022/08/26 00:48:05;;;;;;;9.98;6.07;;;;;;;21.35;58.45;98771.00;5242912;28;20059;-67
2022/08/26 00:51:01;;;;;;;9.35;6.22;;;;;;;21.33;58.26;98762.28;5242265;28;20572;-67
2022/08/26 00:53:57;;;;;;;8.40;6.25;;;;;;;21.20;58.62;98756.16;5241021;28;20071;-67
2022/08/26 00:57:05;;;;;;;9.00;6.10;;;;;;;21.17;58.42;98770.91;5237205;28;20052;-67
2022/08/26 01:00:12;;;;;;;8.02;5.90;;;;;;;21.17;58.77;98772.78;5241391;28;20137;-68
2022/08/26 01:03:02;;;;;;;8.77;5.90;;;;;;;21.02;59.08;98771.19;5237955;28;20048;-66
2022/08/26 01:05:56;;;;;;;7.75;6.20;;;;;;;20.99;58.55;98763.56;5238177;28;20044;-67
2022/08/26 01:08:46;;;;;;;10.70;6.55;;;;;;;20.91;59.21;98771.88;5241611;28;20135;-67
2022/08/26 01:11:37;;;;;;;9.70;6.75;;;;;;;21.01;58.67;98780.31;5238855;28;20057;-67
2022/08/26 01:14:33;;;;;;;10.68;6.03;;;;;;;20.95;58.86;98781.19;5241194;28;20123;-68
2022/08/26 01:17:25;;;;;;;8.88;6.57;;;;;;;20.98;58.83;98778.06;5234932;28;20090;-67
2022/08/26 01:20:21;;;;;;;9.27;6.50;;;;;;;21.06;59.30;98783.22;5236036;28;20068;-68
2022/08/26 01:23:13;;;;;;;12.38;6.25;;;;;;;21.02;59.38;98779.28;5235600;28;20083;-67
2022/08/26 01:26:13;;;;;;;9.32;6.22;;;;;;;21.07;59.02;98771.38;5241106;28;20064;-67
2022/08/26 01:29:14;;;;;;;8.80;6.57;;;;;;;20.95;59.41;98770.41;5240654;28;20063;-67
2022/08/26 01:32:08;;;;;;;11.68;6.72;;;;;;;20.77;60.17;98760.34;5250560;28;20098;-67
2022/08/26 01:34:59;;;;;;;12.95;6.20;;;;;;;20.82;59.36;98765.91;5233324;28;20620;-67
2022/08/26 01:37:53;;;;;;;8.00;6.00;;;;;;;20.80;59.98;98777.97;5242131;28;20125;-67
2022/08/26 01:40:44;;;;;;;8.40;6.07;;;;;;;20.77;59.34;98762.22;5236982;28;20536;-67
2022/08/26 01:43:38;;;;;;;9.00;6.20;;;;;;;20.78;59.11;98769.25;5238614;28;20102;-67
2022/08/26 01:46:29;;;;;;;9.23;6.53;;;;;;;20.73;58.95;98774.44;5239644;28;20075;-67
2022/08/26 01:49:21;;;;;;;7.57;6.20;;;;;;;20.79;59.97;98758.25;5240119;28;20528;-68
2022/08/26 01:52:17;;;;;;;7.93;5.95;;;;;;;20.76;59.72;98758.72;5240845;28;20098;-67
2022/08/26 01:55:14;;;;;;;8.63;6.20;;;;;;;20.82;59.25;98767.78;5243865;28;20123;-67
2022/08/26 01:58:37;;;;;;;12.48;6.28;;;;;;;20.71;58.99;98774.69;5245387;28;20051;-67
2022/08/26 02:01:28;;;;;;;8.75;6.40;;;;;;;20.68;59.87;98764.34;5241734;28;20051;-67
2022/08/26 02:04:31;;;;;;;9.73;6.63;;;;;;;20.62;59.61;98782.16;5244311;28;20047;-67
2022/08/26 02:07:23;;;;;;;11.35;7.18;;;;;;;20.50;60.16;98789.25;5235799;28;20056;-67
2022/08/26 02:10:15;;;;;;;11.65;7.35;;;;;;;20.60;60.70;98784.28;5242300;28;20051;-67
2022/08/26 02:13:09;;;;;;;11.77;6.63;;;;;;;20.84;60.06;98779.19;5249520;28;20418;-67
2022/08/26 02:16:02;;;;;;;12.15;8.02;;;;;;;20.74;60.91;98773.44;5246041;28;20127;-67
2022/08/26 02:18:54;;;;;;;;;;;;;;;20.46;61.24;98781.78;5244065;28;20040;-67
2022/08/26 02:21:47;;;;;;;10.52;7.55;;;;;;;20.38;61.63;98786.38;5238440;28;19927;-67
2022/08/26 02:24:48;;;;;;;13.75;7.28;;;;;;;20.44;60.39;98783.88;5245834;28;20098;-67
2022/08/26 02:27:40;;;;;;;11.40;7.10;;;;;;;20.56;60.79;98790.28;5242193;28;20054;-67
2022/08/26 02:30:31;;;;;;;13.77;7.45;;;;;;;20.41;61.38;98785.97;5245544;28;20457;-68
2022/08/26 02:33:21;;;;;;;18.67;7.72;;;;;;;20.39;61.12;98782.63;5240272;28;20092;-67
2022/08/26 02:36:11;;;;;;;17.60;8.00;;;;;;;20.42;61.42;98784.09;5240765;28;20067;-68
2022/08/26 02:39:06;;;;;;;10.88;7.53;;;;;;;20.34;61.23;98778.94;5245196;28;20045;-67
2022/08/26 02:41:57;;;;;;;12.20;7.50;;;;;;;20.15;61.81;98776.09;5237012;28;20057;-68
2022/08/26 02:44:48;;;;;;;11.20;7.53;;;;;;;20.11;62.15;98780.25;5243092;28;20182;-68
2022/08/26 02:47:38;;;;;;;15.00;7.85;;;;;;;20.15;61.44;98775.25;5239692;28;20055;-68
2022/08/26 02:50:28;;;;;;;10.13;7.28;;;;;;;20.10;61.76;98762.44;5240414;28;20052;-67
2022/08/26 02:53:19;;;;;;;11.23;7.68;;;;;;;20.23;61.87;98784.97;5243881;28;20059;-68
2022/08/26 02:56:14;;;;;;;12.68;8.05;;;;;;;20.04;61.76;98774.06;5235473;28;20178;-67
2022/08/26 02:59:05;;;;;;;10.93;7.47;;;;;;;19.99;61.67;98765.78;5240776;28;20665;-68
2022/08/26 03:01:56;;;;;;;14.65;8.75;;;;;;;20.06;61.46;98771.97;5244676;28;20673;-67
2022/08/26 03:04:46;;;;;;;12.68;8.13;;;;;;;20.12;61.50;98771.13;5240900;28;20067;-68
2022/08/26 03:07:51;;;;;;;;;;;;;;;19.89;62.12;98776.13;5239870;28;20052;-68
2022/08/26 03:10:41;;;;;;;11.65;7.72;;;;;;;19.99;62.31;98762.25;5233763;28;19932;-68
2022/08/26 03:13:31;;;;;;;14.20;8.00;;;;;;;20.03;62.23;98767.00;5243136;28;20044;-67
2022/08/26 03:16:21;;;;;;;13.10;8.43;;;;;;;20.03;62.88;98763.47;5243078;28;20042;-67
2022/08/26 03:19:12;;;;;;;18.35;8.68;;;;;;;20.19;62.66;98754.97;5242252;28;20056;-67
2022/08/26 03:22:06;;;;;;;13.48;8.88;;;;;;;20.01;63.56;98752.13;5239377;28;20052;-67
2022/08/26 03:24:56;;;;;;;13.90;8.52;;;;;;;19.83;63.68;98742.81;5241226;28;20052;-67
2022/08/26 03:27:47;;;;;;;13.25;8.10;;;;;;;19.82;62.65;98749.25;5256624;28;20128;-68
2022/08/26 03:30:41;;;;;;;12.80;8.23;;;;;;;19.86;62.76;98753.16;5240836;28;20056;-68
2022/08/26 03:33:34;;;;;;;17.38;8.35;;;;;;;19.88;62.92;98759.19;5238152;28;20773;-67
2022/08/26 03:36:27;;;;;;;13.07;7.75;;;;;;;19.76;63.00;98750.06;5251777;28;20047;-67
2022/08/26 03:39:18;;;;;;;16.77;8.43;;;;;;;19.74;62.87;98756.72;5240620;28;20052;-68
2022/08/26 03:42:08;;;;;;;10.73;7.80;;;;;;;19.68;62.40;98764.56;5235483;28;20052;-67
2022/08/26 03:44:59;;;;;;;12.43;8.30;;;;;;;19.69;62.66;98757.34;5243954;28;20498;-67
2022/08/26 03:47:49;;;;;;;15.65;8.18;;;;;;;19.56;63.40;98763.50;5234226;28;20057;-67
2022/08/26 03:50:41;;;;;;;12.20;8.43;;;;;;;19.43;63.74;98744.69;5241036;28;20048;-67
2022/08/26 03:53:32;;;;;;;15.57;9.25;;;;;;;19.57;63.51;98761.63;5255625;28;20071;-67
2022/08/26 03:56:26;;;;;;;11.13;8.57;;;;;;;19.58;63.64;98755.25;5243235;28;20044;-66
2022/08/26 03:59:19;;;;;;;9.50;7.45;;;;;;;19.50;63.33;98761.63;5236581;28;20053;-67
2022/08/26 04:02:09;;;;;;;13.73;8.38;;;;;;;19.29;62.85;98743.84;5239147;28;20052;-67
2022/08/26 04:05:01;;;;;;;11.15;7.68;;;;;;;19.33;64.53;98761.22;5239728;28;20564;-68
2022/08/26 04:07:52;;;;;;;13.40;7.97;;;;;;;19.45;63.69;98758.75;5244422;28;20442;-67
2022/08/26 04:10:43;;;;;;;15.25;8.40;;;;;;;19.38;63.88;98766.00;5233508;28;20067;-68
2022/08/26 04:13:33;;;;;;;13.85;8.77;;;;;;;19.45;65.28;98764.97;5240653;28;20068;-68
2022/08/26 04:16:24;;;;;;;10.52;8.02;;;;;;;19.57;64.26;98767.03;5243639;28;20048;-67
2022/08/26 04:19:18;;;;;;;13.17;8.17;;;;;;;19.48;63.84;98763.72;5241250;28;20151;-67
2022/08/26 04:22:08;;;;;;;13.50;8.18;;;;;;;19.46;64.58;98768.47;5237970;28;20440;-67
2022/08/26 04:24:58;;;;;;;10.43;8.30;;;;;;;19.52;64.13;98764.97;5236724;28;20130;-68
2022/08/26 04:27:48;;;;;;;12.63;8.45;;;;;;;19.47;64.48;98765.59;5243238;28;20589;-67
2022/08/26 04:30:39;;;;;;;16.65;8.70;;;;;;;19.29;65.13;98770.75;5242753;28;20056;-68
2022/08/26 04:33:31;;;;;;;18.55;8.77;;;;;;;19.32;64.20;98748.81;5231399;28;20060;-67
2022/08/26 04:36:25;;;;;;;14.05;8.10;;;;;;;19.41;64.67;98768.28;5240337;28;20138;-67
2022/08/26 04:39:15;;;;;;;18.63;8.93;;;;;;;19.46;63.96;98768.47;5235288;28;20077;-67
2022/08/26 04:42:07;;;;;;;15.25;8.65;;;;;;;19.36;64.07;98765.38;5240279;28;20071;-67
2022/08/26 04:44:58;;;;;;;12.48;8.98;;;;;;;19.33;64.52;98761.22;5240346;28;20125;-66
2022/08/26 04:47:52;;;;;;;14.18;8.48;;;;;;;19.31;64.72;98759.81;5238445;28;20774;-68
2022/08/26 04:50:42;;;;;;;;;;;;;;;19.54;64.56;98772.84;5236964;28;20056;-67
2022/08/26 04:53:32;;;;;;;14.07;9.07;;;;;;;19.32;64.93;98742.63;5241827;28;20280;-68
2022/08/26 04:56:29;;;;;;;14.05;8.43;;;;;;;19.41;64.88;98757.53;5235616;28;20119;-67
2022/08/26 04:59:22;;;;;;;12.38;9.45;;;;;;;19.48;65.02;98763.72;5236653;28;20072;-68
2022/08/26 05:02:14;;;;;;;15.23;9.30;;;;;;;19.43;64.73;98771.56;5241453;28;20473;-66
2022/08/26 05:05:05;;;;;;;12.90;8.30;;;;;;;19.58;64.33;98769.53;5238629;28;20081;-68
2022/08/26 05:07:56;;;;;;;13.02;8.77;;;;;;;19.63;65.45;98776.94;5235904;28;20051;-68
2022/08/26 05:10:50;;;;;;;15.68;9.15;;;;;;;19.75;64.29;98775.34;5254645;28;20050;-67
2022/08/26 05:13:40;;;;;;;13.68;9.27;;;;;;;19.85;64.86;98775.72;5242386;28;20279;-67
2022/08/26 05:16:31;;;;;;;14.93;8.77;;;;;;;19.80;64.38;98755.88;5242689;28;20166;-67
2022/08/26 05:19:22;;;;;;;14.65;8.77;;;;;;;20.07;64.16;98770.94;5238302;28;20052;-67
2022/08/26 05:22:13;;;;;;;18.02;9.35;;;;;;;20.15;64.08;98773.41;5243348;28;20426;-66
2022/08/26 05:25:04;;;;;;;14.68;9.13;;;;;;;20.12;65.33;98771.13;5244402;28;20048;-67
2022/08/26 05:27:54;;;;;;;14.73;9.77;;;;;;;20.45;64.49;98774.75;5241935;28;20051;-68
2022/08/26 05:30:45;;;;;;;18.98;10.93;;;;;;;20.43;64.82;98780.38;5244250;28;20052;-68
2022/08/26 05:33:35;;;;;;;24.80;11.05;;;;;;;20.71;63.47;98774.69;5245988;28;20048;-67
2022/08/26 05:36:32;;;;;;;25.02;10.95;;;;;;;20.83;63.23;98777.53;5241843;28;20645;-67
2022/08/26 05:39:23;;;;;;;28.60;11.00;;;;;;;20.91;63.15;98777.28;5244938;28;20056;-67
2022/08/26 05:42:14;;;;;;;29.45;10.25;;;;;;;21.06;62.30;98788.59;5242255;28;20089;-67
2022/08/26 05:45:05;;;;;;;26.10;10.52;;;;;;;21.18;62.42;98790.59;5238579;28;20048;-68
2022/08/26 05:47:55;;;;;;;27.05;11.68;;;;;;;21.23;62.27;98780.81;5240115;28;20059;-66
2022/08/26 05:50:49;;;;;;;26.13;11.10;;;;;;;21.37;61.87;98786.97;5245841;28;20045;-67
2022/08/26 05:53:40;;;;;;;25.23;11.38;;;;;;;21.47;61.88;98786.50;5241583;28;20524;-67
2022/08/26 05:56:43;;;;;;;18.52;11.10;;;;;;;21.53;61.59;98799.94;5244381;28;20045;-67
2022/08/26 05:59:35;;;;;;;23.88;11.23;;;;;;;21.55;62.22;98797.81;5246274;28;20513;-67
2022/08/26 06:02:27;;;;;;;24.52;10.98;;;;;;;21.59;62.09;98792.84;5238234;28;20052;-67
2022/08/26 06:05:18;;;;;;;20.67;11.13;;;;;;;21.80;61.76;98805.09;5240415;28;20422;-68
2022/08/26 06:08:12;;;;;;;20.25;10.77;;;;;;;21.84;61.52;98800.09;5240743;28;20518;-67
2022/08/26 06:11:05;;;;;;;20.20;10.98;;;;;;;21.89;61.62;98790.28;5240908;28;20494;-67
2022/08/26 06:13:58;;;;;;;19.52;12.35;;;;;;;22.08;60.82;98806.50;5242531;28;20131;-67
2022/08/26 06:16:53;;;;;;;19.25;12.05;;;;;;;22.11;61.07;98803.34;5244081;28;20143;-67
2022/08/26 06:19:43;;;;;;;22.67;11.98;;;;;;;22.18;60.84;98793.34;5243708;28;20579;-68
2022/08/26 06:25:51;;;;;;;22.30;10.88;;;;;;;22.28;61.00;98812.56;5236940;28;20048;-68
2022/08/26 06:28:42;;;;;;;16.88;10.40;;;;;;;22.41;60.87;98814.28;5236104;28;20521;-67
2022/08/26 06:31:35;;;;;;;22.57;11.20;;;;;;;22.55;60.32;98812.25;5242672;28;20137;-67
2022/08/26 06:34:28;;;;;;;21.15;10.13;;;;;;;22.61;60.15;98808.66;5238342;28;20101;-68
2022/08/26 06:37:19;;;;;;;;;;;;;;;22.67;59.47;98813.16;5244239;28;20055;-65
2022/08/26 06:40:10;;;;;;;14.52;9.07;;;;;;;22.79;59.10;98815.94;5243684;28;19939;-64
2022/08/26 06:43:00;;;;;;;19.15;9.30;;;;;;;22.88;58.76;98815.41;5243933;28;20513;-65
2022/08/26 06:45:58;;;;;;;17.27;9.80;;;;;;;23.07;58.19;98818.09;5236301;28;20670;-64
2022/08/26 06:48:49;;;;;;;16.45;10.57;;;;;;;23.22;58.03;98818.50;5241201;28;20056;-65
2022/08/26 06:51:40;;;;;;;16.58;9.93;;;;;;;23.45;57.16;98818.56;5242901;28;20494;-65
2022/08/26 06:54:30;;;;;;;16.80;10.07;;;;;;;23.46;57.23;98824.81;5243056;28;20055;-65
2022/08/26 06:57:20;;;;;;;16.00;10.20;;;;;;;23.58;57.07;98814.03;5244096;28;20059;-65
2022/08/26 07:00:11;;;;;;;17.38;9.45;;;;;;;23.66;56.41;98813.66;5243148;28;21492;-66
2022/08/26 07:03:04;;;;;;;17.52;9.68;;;;;;;23.87;56.02;98818.56;5245230;28;20060;-67
2022/08/26 07:06:02;;;;;;;14.32;9.02;;;;;;;24.14;54.48;98820.81;5242037;28;20068;-65
2022/08/26 07:09:01;;;;;;;17.52;7.90;;;;;;;24.27;54.11;98814.31;5242261;28;20701;-66
2022/08/26 07:11:54;;;;;;;13.05;7.80;;;;;;;24.51;53.58;98817.84;5255348;28;20082;-67
2022/08/26 07:14:45;;;;;;;13.02;8.43;;;;;;;24.51;54.92;98820.56;5240702;28;20094;-67
2022/08/26 07:17:37;;;;;;;18.60;8.50;;;;;;;24.97;51.99;98810.66;5243079;28;20050;-66
2022/08/26 07:20:29;;;;;;;13.13;8.50;;;;;;;25.00;53.04;98811.00;5257551;28;20189;-66
2022/08/26 07:23:19;;;;;;;12.32;8.20;;;;;;;25.30;51.63;98823.53;5244361;28;20162;-65
2022/08/26 07:26:15;;;;;;;18.83;8.48;;;;;;;25.48;51.17;98822.47;5242564;28;20405;-66
2022/08/26 07:29:05;;;;;;;15.77;8.10;;;;;;;25.69;51.05;98821.72;5244658;28;20412;-65
2022/08/26 07:31:56;;;;;;;11.57;8.20;;;;;;;25.61;51.33;98824.06;5243417;28;20048;-66
2022/08/26 07:34:46;;;;;;;14.40;7.97;;;;;;;25.66;50.59;98827.69;5244598;28;20056;-67
2022/08/26 07:37:36;;;;;;;14.10;7.63;;;;;;;25.94;50.14;98828.69;5242866;28;20049;-67
2022/08/26 07:40:29;;;;;;;13.23;7.75;;;;;;;26.32;49.73;98836.03;5240080;28;20061;-68
2022/08/26 07:43:19;;;;;;;19.15;8.52;;;;;;;26.28;50.05;98829.47;5243492;28;20109;-67
2022/08/26 07:46:17;;;;;;;13.02;7.40;;;;;;;26.65;49.44;98829.72;5242997;28;20068;-66
2022/08/26 07:49:10;;;;;;;13.93;7.40;;;;;;;27.10;47.36;98819.66;5242247;28;20060;-66
2022/08/26 07:52:01;;;;;;;14.00;5.97;;;;;;;27.29;47.54;98820.16;5239761;28;20063;-65
2022/08/26 07:54:51;;;;;;;9.25;6.78;;;;;;;27.30;45.68;98819.88;5239740;28;20182;-67
2022/08/26 07:57:42;;;;;;;11.63;6.65;;;;;;;27.20;46.54;98822.50;5242763;28;20106;-66
2022/08/26 08:00:33;;;;;;;9.90;6.32;;;;;;;27.49;45.68;98823.06;5241679;28;20044;-65
2022/08/26 08:03:23;;;;;;;18.00;7.10;;;;;;;27.88;44.91;98825.59;5243714;28;20133;-66
2022/08/26 08:06:13;;;;;;;11.27;6.45;;;;;;;28.30;43.73;98822.06;5242773;28;20133;-66
2022/08/26 08:09:03;;;;;;;8.35;5.75;;;;;;;29.15;42.42;98822.75;5238528;28;20090;-66
2022/08/26 08:11:56;;;;;;;8.30;6.25;;;;;;;29.78;41.52;98819.88;5241357;28;20052;-67
2022/08/26 08:14:47;;;;;;;9.30;5.80;;;;;;;30.00;41.68;98819.59;5236356;28;20568;-67
2022/08/26 08:17:37;;;;;;;8.13;6.13;;;;;;;30.67;39.75;98814.78;5239088;28;20055;-68
2022/08/26 08:20:28;;;;;;;11.93;5.75;;;;;;;30.98;37.77;98817.41;5239838;28;20426;-66
2022/08/26 08:23:18;;;;;;;9.13;4.85;;;;;;;31.25;39.37;98817.78;5241543;28;20109;-66
2022/08/26 08:26:10;;;;;;;9.35;5.30;;;;;;;31.58;37.91;98802.50;5241667;28;20672;-65
2022/08/26 08:29:00;;;;;;;8.43;5.35;;;;;;;32.04;36.60;98818.59;5242534;28;20059;-66
2022/08/26 08:31:51;;;;;;;8.40;4.32;;;;;;;32.03;36.19;98813.41;5239140;28;20453;-65
2022/08/26 08:34:46;;;;;;;7.22;4.70;;;;;;;32.03;36.82;98819.72;5242900;28;20044;-65
2022/08/26 08:37:37;;;;;;;7.47;4.55;;;;;;;32.83;36.82;98822.97;5240878;28;20079;-66
2022/08/26 08:40:27;;;;;;;5.35;4.43;;;;;;;33.35;33.95;98815.69;5235608;28;20056;-66
2022/08/26 08:43:32;;;;;;;9.13;4.43;;;;;;;33.11;34.82;98816.56;5239644;28;20556;-66
2022/08/26 08:46:28;;;;;;;6.45;4.70;;;;;;;34.01;34.20;98811.09;5240707;28;20301;-66
2022/08/26 08:49:20;;;;;;;5.20;4.68;;;;;;;32.65;34.53;98805.34;5242976;28;20210;-67
2022/08/26 08:52:36;;;;;;;5.18;3.85;;;;;;;33.83;34.13;98807.25;5240766;28;20451;-66
2022/08/26 08:55:35;;;;;;;7.05;4.47;;;;;;;34.43;32.17;98800.94;5241941;28;20047;-66
2022/08/26 08:58:40;;;;;;;5.35;3.95;;;;;;;34.97;31.64;98802.88;5241959;28;20513;-66
2022/08/26 09:01:41;;;;;;;4.75;3.80;;;;;;;34.55;31.91;98799.34;5241595;28;20146;-67
2022/08/26 09:04:54;;;;;;;8.32;3.88;;;;;;;35.03;30.90;98796.16;5242867;28;20048;-66
2022/08/26 09:08:05;;;;;;;;;;;;;;;35.27;31.86;98793.13;5241802;28;20610;-66
2022/08/26 09:10:59;;;;;;;6.22;4.60;;;;;;;34.93;32.78;98785.31;5237681;28;19985;-66
2022/08/26 09:13:52;;;;;;;6.65;4.32;;;;;;;35.95;29.48;98782.06;5241216;28;20059;-66
2022/08/26 09:16:50;;;;;;;7.50;4.10;;;;;;;34.78;31.16;98788.41;5253716;28;20040;-66
2022/08/26 09:19:48;;;;;;;4.75;3.80;;;;;;;33.78;33.10;98780.66;5238925;28;20055;-66
2022/08/26 09:22:39;;;;;;;6.93;4.28;;;;;;;34.61;32.17;98775.28;5241416;28;20427;-66
2022/08/26 09:25:44;;;;;;;6.60;4.40;;;;;;;33.94;33.15;98775.66;5241738;28;20044;-67
2022/08/26 09:28:41;;;;;;;16.30;5.32;;;;;;;34.07;32.50;98774.09;5236147;28;20090;-66
2022/08/26 09:31:34;;;;;;;11.43;4.70;;;;;;;35.29;32.33;98779.00;5236416;28;20091;-67
2022/08/26 09:34:27;;;;;;;9.00;5.20;;;;;;;35.63;31.78;98764.72;5235580;28;20577;-67
2022/08/26 09:37:36;;;;;;;8.77;5.00;;;;;;;34.58;32.66;98767.63;5238576;28;20045;-65
2022/08/26 09:40:34;;;;;;;16.13;6.25;;;;;;;35.19;32.10;98757.19;5236247;28;20045;-66
2022/08/26 09:43:27;;;;;;;9.25;5.05;;;;;;;35.59;31.50;98754.59;5236295;28;20109;-66
2022/08/26 09:46:24;;;;;;;11.93;5.43;;;;;;;35.58;30.34;98752.97;5235035;28;20482;-67
2022/08/26 09:49:24;;;;;;;13.05;6.40;;;;;;;34.95;31.87;98741.75;5226597;28;20068;-66
2022/08/26 09:52:22;;;;;;;12.00;5.60;;;;;;;34.75;33.10;98733.94;5239523;28;20048;-66
2022/08/26 09:55:22;;;;;;;11.70;5.47;;;;;;;35.44;32.12;98731.78;5239437;28;20091;-66
2022/08/26 09:58:30;;;;;;;13.52;5.35;;;;;;;36.23;30.36;98725.59;5241592;28;20111;-66
2022/08/26 10:01:22;;;;;;;10.57;5.57;;;;;;;35.29;31.01;98740.41;5240575;28;20049;-66
2022/08/26 10:04:24;;;;;;;14.90;5.75;;;;;;;34.06;32.37;98737.53;5240524;28;21685;-66
2022/08/26 10:07:40;;;;;;;17.73;5.57;;;;;;;35.39;32.28;98734.66;5240944;28;20045;-66
2022/08/26 10:10:35;;;;;;;11.70;6.43;;;;;;;36.53;29.92;98733.34;5243410;28;20425;-66
2022/08/26 10:13:36;;;;;;;22.27;6.60;;;;;;;35.66;30.75;98711.66;5244548;28;20102;-66
2022/08/26 10:17:02;;;;;;;17.83;6.28;;;;;;;36.02;30.30;98721.75;5243559;28;20125;-66
2022/08/26 10:20:05;;;;;;;13.75;6.35;;;;;;;34.83;31.65;98722.19;5244307;28;20589;-66
2022/08/26 10:23:17;;;;;;;12.13;6.55;;;;;;;34.67;31.85;98723.66;5244024;28;20060;-66
2022/08/26 10:26:45;;;;;;;14.30;6.38;;;;;;;34.57;32.94;98724.69;5243847;28;20083;-67
2022/08/26 10:29:45;;;;;;;13.50;6.40;;;;;;;35.15;32.53;98725.91;5219247;28;20049;-66
2022/08/26 10:32:40;;;;;;;17.38;6.72;;;;;;;36.23;31.22;98691.66;5254016;22;20047;-82
2022/08/26 10:35:34;;;;;;;14.60;6.25;;;;;;;36.18;30.12;98700.88;5244337;28;20055;-82
2022/08/26 10:38:37;;;;;;;13.20;6.20;;;;;;;36.53;29.59;98691.91;5261247;28;20068;-83
2022/08/26 10:41:35;;;;;;;15.25;6.07;;;;;;;37.04;30.00;98695.84;5248618;28;20063;-82
2022/08/26 10:44:27;;;;;;;21.23;5.85;;;;;;;36.44;29.78;98687.13;5241522;28;20055;-82
2022/08/26 10:47:24;;;;;;;16.90;6.07;;;;;;;36.44;30.79;98694.63;5247863;28;20110;-83
2022/08/26 10:50:17;;;;;;;14.70;6.10;;;;;;;36.63;29.73;98670.31;5241224;28;20681;-81
2022/08/26 10:53:50;;;;;;;16.60;5.90;;;;;;;37.02;28.91;98679.63;5246546;28;20127;-83
2022/08/26 10:57:01;;;;;;;14.45;5.70;;;;;;;36.60;28.64;98681.19;5246135;28;20055;-82
2022/08/26 11:03:49;;;;;;;18.75;6.45;;;;;;;36.96;28.14;98656.00;5228782;28;20178;-83
2022/08/26 11:06:39;;;;;;;20.60;6.10;;;;;;;36.30;29.09;98667.16;5258346;28;20125;-82
2022/08/26 11:09:51;;;;;;;14.00;5.80;;;;;;;36.10;30.04;98659.47;5245566;28;20132;-82
2022/08/26 11:12:41;;;;;;;18.92;5.28;;;;;;;36.45;29.93;98657.56;5248983;28;20045;-82
2022/08/26 11:15:35;;;;;;;16.48;5.55;;;;;;;36.02;29.64;98666.56;5264091;28;20104;-82
2022/08/26 11:18:36;;;;;;;;;;;;;;;36.53;29.25;98661.53;5266210;28;20115;-83
2022/08/26 11:21:59;;;;;;;19.23;6.60;;;;;;;34.89;31.61;98668.59;5264790;28;19959;-83
2022/08/26 11:24:53;;;;;;;16.75;6.38;;;;;;;35.12;31.30;98674.16;5254421;28;20048;-82
2022/08/26 11:27:44;;;;;;;;;;;;;;;35.81;29.99;98660.78;5255036;28;20047;-83
2022/08/26 11:30:39;;;;;;;17.30;4.88;;;;;;;33.78;31.50;98654.16;5256882;28;19921;-83
2022/08/26 11:33:51;;;;;;;11.27;4.75;;;;;;;33.85;31.59;98660.06;5239162;28;20617;-83
2022/08/26 11:36:46;;;;;;;12.93;5.43;;;;;;;34.62;31.78;98643.94;5240954;28;20461;-82
2022/08/26 11:39:50;;;;;;;11.30;5.45;;;;;;;35.57;30.96;98632.78;5246288;28;20051;-82
2022/08/26 11:42:50;;;;;;;15.32;6.03;;;;;;;35.60;30.42;98629.38;5238491;28;20110;-82
2022/08/26 11:45:44;;;;;;;14.75;6.50;;;;;;;34.94;32.04;98626.38;5252989;28;20049;-82
2022/08/26 11:48:39;;;;;;;19.45;7.32;;;;;;;34.63;32.96;98623.50;5246420;28;20041;-82
2022/08/26 11:51:30;;;;;;;14.73;6.35;;;;;;;34.25;32.05;98607.28;5242266;28;20140;-84
2022/08/26 11:54:22;;;;;;;15.27;6.15;;;;;;;33.61;32.65;98594.28;5257151;28;20613;-85
2022/08/26 11:57:25;;;;;;;15.32;6.32;;;;;;;32.39;35.61;98635.50;5239090;28;20047;-84
2022/08/26 12:00:53;;;;;;;19.65;6.35;;;;;;;32.38;35.99;98649.50;5256477;28;20128;-83
2022/08/26 12:03:49;;;;;;;11.85;5.25;;;;;;;31.86;36.04;98656.72;5258427;28;20063;-83
2022/08/26 12:06:46;;;;;;;14.75;6.20;;;;;;;32.38;35.87;98649.50;5223829;28;20102;-83
2022/08/26 12:09:50;;;;;;;10.90;5.95;;;;;;;33.50;34.32;98658.78;5241979;28;20056;-83
2022/08/26 12:12:41;;;;;;;17.13;6.43;;;;;;;32.52;35.40;98631.25;5249771;28;20052;-83
2022/08/26 12:15:33;;;;;;;18.90;6.47;;;;;;;33.04;34.14;98632.09;5243399;28;20178;-83
2022/08/26 12:18:29;;;;;;;17.33;6.95;;;;;;;33.26;33.88;98636.13;5242694;28;20124;-82
2022/08/26 12:21:23;;;;;;;15.60;6.13;;;;;;;32.07;34.47;98605.22;5241308;28;20048;-82
2022/08/26 12:24:17;;;;;;;15.80;5.78;;;;;;;31.83;34.50;98614.25;5244906;28;20044;-84
2022/08/26 12:27:24;;;;;;;21.02;6.40;;;;;;;32.48;33.07;98602.72;5227353;28;20045;-82
2022/08/26 12:30:18;;;;;;;13.07;5.00;;;;;;;32.96;32.84;98616.31;5233583;28;21035;-82
2022/08/26 12:33:14;;;;;;;12.82;5.28;;;;;;;33.19;33.07;98622.78;5182977;28;1053446;-83
2022/08/26 12:36:17;;;;;;;13.05;5.50;;;;;;;32.83;32.63;98603.31;5240941;28;20052;-82
2022/08/26 12:39:15;;;;;;;17.90;6.30;;;;;;;33.10;33.37;98606.16;5240193;28;20048;-83
2022/08/26 12:42:41;;;;;;;17.15;6.50;;;;;;;33.08;31.98;98619.41;5239697;28;20067;-83
2022/08/26 12:45:34;;;;;;;18.98;5.93;;;;;;;32.97;32.41;98617.94;5241412;28;20071;-84
2022/08/26 12:48:30;;;;;;;18.08;6.43;;;;;;;33.01;32.37;98602.47;5237549;28;20183;-84
2022/08/26 12:51:25;;;;;;;12.13;5.70;;;;;;;32.37;33.28;98598.50;5256954;28;20210;-84
2022/08/26 12:54:16;;;;;;;;;;;;;;;32.38;33.66;98611.09;5229053;28;20497;-82
2022/08/26 12:57:12;;;;;;;16.20;6.40;;;;;;;32.57;33.19;98602.91;5238069;28;20506;-83
2022/08/26 13:00:21;;;;;;;25.45;5.90;;;;;;;32.85;33.23;98607.41;5249732;28;20059;-83
2022/08/26 13:03:34;;;;;;;15.68;5.88;;;;;;;32.83;33.99;98584.09;5245615;28;20095;-83
2022/08/26 13:06:31;;;;;;;16.90;6.00;;;;;;;33.10;33.09;98581.44;5229293;28;20542;-83
2022/08/26 13:09:21;;;;;;;15.55;5.93;;;;;;;32.95;33.46;98592.69;5208994;28;20059;-84
2022/08/26 13:12:22;;;;;;;18.83;6.22;;;;;;;32.81;33.76;98576.13;5223736;28;20055;-83
2022/08/26 13:15:12;;;;;;;15.85;5.85;;;;;;;33.08;33.32;98567.22;5208959;28;20063;-82
2022/08/26 13:18:03;;;;;;;22.65;7.40;;;;;;;33.20;33.91;98589.50;5222647;28;20103;-82
2022/08/26 13:20:53;;;;;;;15.60;5.93;;;;;;;32.67;33.93;98570.59;5223747;28;20052;-82
2022/08/26 13:23:43;;;;;;;18.65;5.70;;;;;;;33.09;32.99;98559.78;5237278;28;20072;-83
2022/08/26 13:26:34;;;;;;;14.82;6.45;;;;;;;32.73;33.89;98571.34;5223330;28;20103;-83
2022/08/26 13:29:25;;;;;;;17.73;6.28;;;;;;;32.74;34.83;98543.56;5223572;28;20049;-83
2022/08/26 13:32:16;;;;;;;11.80;5.72;;;;;;;32.94;35.18;98564.38;5208510;28;20136;-83
2022/08/26 13:35:07;;;;;;;12.25;5.68;;;;;;;33.19;34.45;98571.41;5235646;28;20054;-84
2022/08/26 13:37:57;;;;;;;16.60;6.50;;;;;;;33.08;34.32;98537.00;5244167;28;20262;-83
2022/08/26 13:40:48;;;;;;;12.82;6.63;;;;;;;32.03;35.36;98555.63;5222509;28;20063;-83
2022/08/26 13:43:38;;;;;;;11.00;5.93;;;;;;;32.73;34.89;98574.09;5231109;28;20048;-83
2022/08/26 13:46:29;;;;;;;12.70;5.75;;;;;;;32.69;34.25;98551.09;5247197;28;20411;-85